^^
Meteo Knjazevac Station Historical Data
Daily Summary for February 16, 2021 Units:  Both    English   Metric
Daily Weekly Monthly Yearly Custom
  High: Low: Average:
Temperature: 71.4 °F /  21.9 °C 48.7 °F /  9.3 °C 60.5 °F /  15.8 °C
Dew Point: 60.3 °F /  15.7 °C 48.2 °F /  9 °C 55.2 °F /  12.9 °C
Humidity: 99% 60% 84%
Wind Speed: 12mph /  19.3km/h - 2.1mph /  3.4km/h
Wind Gust: 22mph /  35.4km/h - -
Wind- - SSW
Pressure: 29.89 in /  1012.1 hPa 29.85 in /  1010.7 hPa -
Precipitation: 0.01 in /  0.25 mm    
Historical Graphs
 
 
Tabular Data for February 16, 2021
Time Temperature Dew Point Pressure Wind Wind Speed Wind Gust Humidity Rainfall Rate (Hourly) solar Conditions
00:00 56.1 °F /  13.4 °C 54.7 °F /  12.6 °C 29.86in /  1011.1hPa Calm   2mph /  3.2km/h 95% 0.00in /  0mm 0 W/m2
00:10 56 °F /  13.3 °C 54.9 °F /  12.7 °C 29.86in /  1011.1hPa WNW 1mph /  1.6km/h 3mph /  4.8km/h 96% 0.00in /  0mm 0 W/m2
00:20 55.8 °F /  13.2 °C 54.4 °F /  12.4 °C 29.86in /  1011.1hPa WSW 1mph /  1.6km/h 2mph /  3.2km/h 95% 0.00in /  0mm 0 W/m2
00:30 55.8 °F /  13.2 °C 54.6 °F /  12.6 °C 29.86in /  1011.1hPa West 1mph /  1.6km/h 2mph /  3.2km/h 96% 0.00in /  0mm 0 W/m2
00:40 55.6 °F /  13.1 °C 54.5 °F /  12.5 °C 29.86in /  1011.1hPa West 1mph /  1.6km/h 3mph /  4.8km/h 96% 0.00in /  0mm 0 W/m2
00:50 55.2 °F /  12.9 °C 54.1 °F /  12.3 °C 29.86in /  1011.1hPa NW 1mph /  1.6km/h 3mph /  4.8km/h 96% 0.00in /  0mm 0 W/m2
01:00 55.2 °F /  12.9 °C 54.1 °F /  12.3 °C 29.86in /  1011.1hPa Calm   2mph /  3.2km/h 96% 0.00in /  0mm 0 W/m2
01:10 55.2 °F /  12.9 °C 54.1 °F /  12.3 °C 29.85in /  1010.7hPa Calm   2mph /  3.2km/h 96% 0.00in /  0mm 0 W/m2
01:20 55.2 °F /  12.9 °C 54.1 °F /  12.3 °C 29.86in /  1011.1hPa Calm   2mph /  3.2km/h 96% 0.00in /  0mm 0 W/m2
01:30 55 °F /  12.8 °C 53.9 °F /  12.2 °C 29.86in /  1011.1hPa Calm   2mph /  3.2km/h 96% 0.00in /  0mm 0 W/m2
01:40 54.8 °F /  12.7 °C 53.7 °F /  12.1 °C 29.86in /  1011.1hPa SSW 1mph /  1.6km/h 2mph /  3.2km/h 96% 0.00in /  0mm 0 W/m2
01:50 54.5 °F /  12.5 °C 53.4 °F /  11.9 °C 29.86in /  1011.1hPa Calm   2mph /  3.2km/h 96% 0.00in /  0mm 0 W/m2
02:00 54.3 °F /  12.4 °C 53.2 °F /  11.8 °C 29.85in /  1010.7hPa Calm   1mph /  1.6km/h 96% 0.00in /  0mm 0 W/m2
02:10 54.1 °F /  12.3 °C 52.7 °F /  11.5 °C 29.85in /  1010.7hPa Calm   2mph /  3.2km/h 95% 0.00in /  0mm 0 W/m2
02:20 53.8 °F /  12.1 °C 52.7 °F /  11.5 °C 29.86in /  1011.1hPa WSW 1mph /  1.6km/h 3mph /  4.8km/h 96% 0.00in /  0mm 0 W/m2
02:30 53.4 °F /  11.9 °C 52 °F /  11.1 °C 29.86in /  1011.1hPa WNW 1mph /  1.6km/h 3mph /  4.8km/h 95% 0.00in /  0mm 0 W/m2
02:40 53.4 °F /  11.9 °C 52.3 °F /  11.3 °C 29.85in /  1010.7hPa Calm   2mph /  3.2km/h 96% 0.00in /  0mm 0 W/m2
02:50 52.9 °F /  11.6 °C 51.5 °F /  10.8 °C 29.85in /  1010.7hPa Calm   2mph /  3.2km/h 95% 0.00in /  0mm 0 W/m2
03:00 52.5 °F /  11.4 °C 51.4 °F /  10.8 °C 29.85in /  1010.7hPa Calm   1mph /  1.6km/h 96% 0.00in /  0mm 0 W/m2
03:10 52.3 °F /  11.3 °C 51.2 °F /  10.7 °C 29.85in /  1010.7hPa Calm   2mph /  3.2km/h 96% 0.00in /  0mm 0 W/m2
03:20 52 °F /  11.1 °C 50.9 °F /  10.5 °C 29.85in /  1010.7hPa WNW 2mph /  3.2km/h 3mph /  4.8km/h 96% 0.00in /  0mm 0 W/m2
03:30 51.6 °F /  10.9 °C 50.5 °F /  10.3 °C 29.85in /  1010.7hPa WNW 1mph /  1.6km/h 3mph /  4.8km/h 96% 0.00in /  0mm 0 W/m2
03:40 51.3 °F /  10.7 °C 50.2 °F /  10.1 °C 29.85in /  1010.7hPa Calm   2mph /  3.2km/h 96% 0.00in /  0mm 0 W/m2
03:50 50.9 °F /  10.5 °C 49.8 °F /  9.9 °C 29.86in /  1011.1hPa Calm   2mph /  3.2km/h 96% 0.00in /  0mm 0 W/m2
04:00 50.7 °F /  10.4 °C 49.6 °F /  9.8 °C 29.86in /  1011.1hPa Calm   2mph /  3.2km/h 96% 0.00in /  0mm 0 W/m2
04:10 50.4 °F /  10.2 °C 49.3 °F /  9.6 °C 29.86in /  1011.1hPa Calm   3mph /  4.8km/h 96% 0.00in /  0mm 0 W/m2
04:20 50.3 °F /  10.2 °C 49.2 °F /  9.6 °C 29.86in /  1011.1hPa Calm   2mph /  3.2km/h 96% 0.00in /  0mm 0 W/m2
04:30 50.2 °F /  10.1 °C 49.6 °F /  9.8 °C 29.86in /  1011.1hPa Calm   2mph /  3.2km/h 98% 0.00in /  0mm 0 W/m2
04:40 50 °F /  10 °C 49.5 °F /  9.7 °C 29.86in /  1011.1hPa WNW 1mph /  1.6km/h 3mph /  4.8km/h 98% 0.00in /  0mm 0 W/m2
04:50 49.8 °F /  9.9 °C 49.3 °F /  9.6 °C 29.86in /  1011.1hPa WSW 2mph /  3.2km/h 3mph /  4.8km/h 98% 0.00in /  0mm 0 W/m2
05:00 49.3 °F /  9.6 °C 48.5 °F /  9.2 °C 29.86in /  1011.1hPa WSW 1mph /  1.6km/h 3mph /  4.8km/h 97% 0.00in /  0mm 0 W/m2
05:10 49.1 °F /  9.5 °C 48.6 °F /  9.2 °C 29.86in /  1011.1hPa West 1mph /  1.6km/h 3mph /  4.8km/h 98% 0.00in /  0mm 5 W/m2
05:20 48.9 °F /  9.4 °C 48.4 °F /  9.1 °C 29.87in /  1011.4hPa NW 1mph /  1.6km/h 2mph /  3.2km/h 98% 0.00in /  0mm 12 W/m2
05:30 48.8 °F /  9.3 °C 48.3 °F /  9.1 °C 29.87in /  1011.4hPa Calm   2mph /  3.2km/h 98% 0.00in /  0mm 22 W/m2
05:40 48.7 °F /  9.3 °C 48.2 °F /  9 °C 29.87in /  1011.4hPa Calm   2mph /  3.2km/h 98% 0.00in /  0mm 32 W/m2
05:50 48.7 °F /  9.3 °C 48.2 °F /  9 °C 29.87in /  1011.4hPa Calm   1mph /  1.6km/h 98% 0.00in /  0mm 44 W/m2
06:00 48.7 °F /  9.3 °C 48.2 °F /  9 °C 29.87in /  1011.4hPa Calm   2mph /  3.2km/h 98% 0.00in /  0mm 71 W/m2
06:10 48.7 °F /  9.3 °C 48.2 °F /  9 °C 29.87in /  1011.4hPa Calm   2mph /  3.2km/h 98% 0.00in /  0mm 64 W/m2
06:20 48.9 °F /  9.4 °C 48.7 °F /  9.3 °C 29.87in /  1011.4hPa Calm   3mph /  4.8km/h 99% 0.00in /  0mm 67 W/m2
06:30 49.1 °F /  9.5 °C 48.8 °F /  9.3 °C 29.87in /  1011.4hPa Calm   2mph /  3.2km/h 99% 0.00in /  0mm 135 W/m2
06:40 49.5 °F /  9.7 °C 49.2 °F /  9.6 °C 29.87in /  1011.4hPa Calm   2mph /  3.2km/h 99% 0.00in /  0mm 184 W/m2
06:50 49.9 °F /  9.9 °C 49.6 °F /  9.8 °C 29.87in /  1011.4hPa Calm   2mph /  3.2km/h 99% 0.00in /  0mm 240 W/m2
07:00 50.9 °F /  10.5 °C 50.6 °F /  10.3 °C 29.87in /  1011.4hPa NE 1mph /  1.6km/h 6mph /  9.7km/h 99% 0.00in /  0mm 284 W/m2
07:10 52.1 °F /  11.2 °C 51.8 °F /  11 °C 29.87in /  1011.4hPa ENE 2mph /  3.2km/h 6mph /  9.7km/h 99% 0.00in /  0mm 315 W/m2
07:20 53.1 °F /  11.7 °C 52.8 °F /  11.6 °C 29.87in /  1011.4hPa NNE 3mph /  4.8km/h 7mph /  11.3km/h 99% 0.00in /  0mm 346 W/m2
07:30 54.1 °F /  12.3 °C 53.6 °F /  12 °C 29.87in /  1011.4hPa NE 2mph /  3.2km/h 6mph /  9.7km/h 98% 0.00in /  0mm 377 W/m2
07:40 55.2 °F /  12.9 °C 54.1 °F /  12.3 °C 29.87in /  1011.4hPa East 2mph /  3.2km/h 8mph /  12.9km/h 96% 0.00in /  0mm 408 W/m2
07:50 56.3 °F /  13.5 °C 55.2 °F /  12.9 °C 29.87in /  1011.4hPa NNE 2mph /  3.2km/h 6mph /  9.7km/h 96% 0.00in /  0mm 397 W/m2
08:00 57.3 °F /  14.1 °C 55.6 °F /  13.1 °C 29.87in /  1011.4hPa NE 3mph /  4.8km/h 7mph /  11.3km/h 94% 0.00in /  0mm 336 W/m2
08:10 58.5 °F /  14.7 °C 55.8 °F /  13.2 °C 29.87in /  1011.4hPa ESE 2mph /  3.2km/h 7mph /  11.3km/h 91% 0.00in /  0mm 501 W/m2
08:20 59.5 °F /  15.3 °C 56 °F /  13.3 °C 29.87in /  1011.4hPa SSW 2mph /  3.2km/h 7mph /  11.3km/h 88% 0.00in /  0mm 246 W/m2
08:30 60 °F /  15.6 °C 55.5 °F /  13.1 °C 29.87in /  1011.4hPa SW 3mph /  4.8km/h 7mph /  11.3km/h 85% 0.00in /  0mm 212 W/m2
08:40 60.3 °F /  15.7 °C 55.4 °F /  13 °C 29.87in /  1011.4hPa SW 3mph /  4.8km/h 9mph /  14.5km/h 84% 0.00in /  0mm 426 W/m2
08:50 60.8 °F /  16 °C 55.6 °F /  13.1 °C 29.87in /  1011.4hPa SSW 5mph /  8km/h 7mph /  11.3km/h 83% 0.00in /  0mm 441 W/m2
09:00 62.1 °F /  16.7 °C 56.2 °F /  13.4 °C 29.87in /  1011.4hPa SSW 2mph /  3.2km/h 7mph /  11.3km/h 81% 0.00in /  0mm 645 W/m2
09:10 63.8 °F /  17.7 °C 56.8 °F /  13.8 °C 29.87in /  1011.4hPa SW 3mph /  4.8km/h 6mph /  9.7km/h 78% 0.00in /  0mm 671 W/m2
09:20 64.9 °F /  18.3 °C 57.5 °F /  14.2 °C 29.87in /  1011.4hPa SSW 2mph /  3.2km/h 6mph /  9.7km/h 77% 0.00in /  0mm 697 W/m2
09:30 66.3 °F /  19.1 °C 57.8 °F /  14.3 °C 29.86in /  1011.1hPa SSE 1mph /  1.6km/h 6mph /  9.7km/h 74% 0.00in /  0mm 670 W/m2
09:40 66.4 °F /  19.1 °C 57.5 °F /  14.2 °C 29.86in /  1011.1hPa SSW 2mph /  3.2km/h 5mph /  8km/h 73% 0.00in /  0mm 407 W/m2
09:50 66.2 °F /  19 °C 56.9 °F /  13.8 °C 29.86in /  1011.1hPa SSW 2mph /  3.2km/h 5mph /  8km/h 72% 0.00in /  0mm 372 W/m2
10:00 66.2 °F /  19 °C 57.3 °F /  14.1 °C 29.86in /  1011.1hPa Calm   4mph /  6.4km/h 73% 0.00in /  0mm 330 W/m2
10:10 66.3 °F /  19.1 °C 57 °F /  13.9 °C 29.86in /  1011.1hPa SW 2mph /  3.2km/h 6mph /  9.7km/h 72% 0.00in /  0mm 279 W/m2
10:20 66.4 °F /  19.1 °C 57.5 °F /  14.2 °C 29.86in /  1011.1hPa SW 5mph /  8km/h 7mph /  11.3km/h 73% 0.00in /  0mm 303 W/m2
10:30 66.4 °F /  19.1 °C 57.5 °F /  14.2 °C 29.86in /  1011.1hPa WSW 6mph /  9.7km/h 8mph /  12.9km/h 73% 0.00in /  0mm 248 W/m2
10:40 66.1 °F /  18.9 °C 57.6 °F /  14.2 °C 29.87in /  1011.4hPa WSW 6mph /  9.7km/h 10mph /  16.1km/h 74% 0.00in /  0mm 199 W/m2
10:50 65.3 °F /  18.5 °C 56.8 °F /  13.8 °C 29.87in /  1011.4hPa SW 7mph /  11.3km/h 11mph /  17.7km/h 74% 0.00in /  0mm 191 W/m2
11:00 64.3 °F /  17.9 °C 57.6 °F /  14.2 °C 29.87in /  1011.4hPa SW 5mph /  8km/h 9mph /  14.5km/h 79% 0.00in /  0mm 252 W/m2
11:10 64 °F /  17.8 °C 58.1 °F /  14.5 °C 29.87in /  1011.4hPa SW 3mph /  4.8km/h 6mph /  9.7km/h 81% 0.00in /  0mm 277 W/m2
11:20 64 °F /  17.8 °C 58.8 °F /  14.9 °C 29.87in /  1011.4hPa SW 3mph /  4.8km/h 6mph /  9.7km/h 83% 0.00in /  0mm 215 W/m2
11:30 64 °F /  17.8 °C 58.8 °F /  14.9 °C 29.87in /  1011.4hPa SW 3mph /  4.8km/h 6mph /  9.7km/h 83% 0.00in /  0mm 254 W/m2
11:40 64.3 °F /  17.9 °C 59.4 °F /  15.2 °C 29.87in /  1011.4hPa SW 2mph /  3.2km/h 7mph /  11.3km/h 84% 0.00in /  0mm 420 W/m2
11:50 65.1 °F /  18.4 °C 59.1 °F /  15.1 °C 29.87in /  1011.4hPa SW 2mph /  3.2km/h 6mph /  9.7km/h 81% 0.00in /  0mm 444 W/m2
12:00 65.8 °F /  18.8 °C 59.1 °F /  15.1 °C 29.87in /  1011.4hPa West 3mph /  4.8km/h 7mph /  11.3km/h 79% 0.00in /  0mm 574 W/m2
12:10 66.2 °F /  19 °C 57.7 °F /  14.3 °C 29.86in /  1011.1hPa West 5mph /  8km/h 8mph /  12.9km/h 74% 0.00in /  0mm 662 W/m2
12:20 66.4 °F /  19.1 °C 57.1 °F /  13.9 °C 29.86in /  1011.1hPa WSW 3mph /  4.8km/h 8mph /  12.9km/h 72% 0.00in /  0mm 437 W/m2
12:30 66.7 °F /  19.3 °C 57.4 °F /  14.1 °C 29.86in /  1011.1hPa WNW 2mph /  3.2km/h 8mph /  12.9km/h 72% 0.00in /  0mm 948 W/m2
12:40 67.3 °F /  19.6 °C 57.6 °F /  14.2 °C 29.86in /  1011.1hPa West 1mph /  1.6km/h 8mph /  12.9km/h 71% 0.00in /  0mm 317 W/m2
12:50 67 °F /  19.4 °C 56.9 °F /  13.8 °C 29.86in /  1011.1hPa WNW 2mph /  3.2km/h 5mph /  8km/h 70% 0.00in /  0mm 152 W/m2
13:00 66.7 °F /  19.3 °C 56.6 °F /  13.7 °C 29.86in /  1011.1hPa West 2mph /  3.2km/h 5mph /  8km/h 70% 0.00in /  0mm 80 W/m2
13:10 66.6 °F /  19.2 °C 56.5 °F /  13.6 °C 29.86in /  1011.1hPa Calm   3mph /  4.8km/h 70% 0.00in /  0mm 117 W/m2
13:20 66.4 °F /  19.1 °C 56.7 °F /  13.7 °C 29.86in /  1011.1hPa WSW 1mph /  1.6km/h 6mph /  9.7km/h 71% 0.00in /  0mm 220 W/m2
13:30 66.6 °F /  19.2 °C 56.5 °F /  13.6 °C 29.86in /  1011.1hPa Calm   6mph /  9.7km/h 70% 0.00in /  0mm 288 W/m2
13:40 66.6 °F /  19.2 °C 56.5 °F /  13.6 °C 29.86in /  1011.1hPa WNW 6mph /  9.7km/h 13mph /  20.9km/h 70% 0.00in /  0mm 425 W/m2
13:50 66.5 °F /  19.2 °C 56.8 °F /  13.8 °C 29.86in /  1011.1hPa NW 5mph /  8km/h 12mph /  19.3km/h 71% 0.00in /  0mm 366 W/m2
14:00 66.7 °F /  19.3 °C 57.4 °F /  14.1 °C 29.86in /  1011.1hPa WNW 5mph /  8km/h 8mph /  12.9km/h 72% 0.00in /  0mm 327 W/m2
14:10 67 °F /  19.4 °C 57.3 °F /  14.1 °C 29.86in /  1011.1hPa WNW 7mph /  11.3km/h 10mph /  16.1km/h 71% 0.00in /  0mm 864 W/m2
14:20 68.3 °F /  20.2 °C 57.7 °F /  14.3 °C 29.86in /  1011.1hPa WNW 5mph /  8km/h 12mph /  19.3km/h 69% 0.00in /  0mm 678 W/m2
14:30 68.9 °F /  20.5 °C 57.1 °F /  13.9 °C 29.86in /  1011.1hPa WNW 6mph /  9.7km/h 12mph /  19.3km/h 66% 0.00in /  0mm 367 W/m2
14:40 68.7 °F /  20.4 °C 55.2 °F /  12.9 °C 29.86in /  1011.1hPa WNW 6mph /  9.7km/h 14mph /  22.5km/h 62% 0.00in /  0mm 225 W/m2
14:50 68.2 °F /  20.1 °C 53.8 °F /  12.1 °C 29.86in /  1011.1hPa West 9mph /  14.5km/h 16mph /  25.7km/h 60% 0.00in /  0mm 280 W/m2
15:00 68.2 °F /  20.1 °C 55.1 °F /  12.8 °C 29.86in /  1011.1hPa West 12mph /  19.3km/h 22mph /  35.4km/h 63% 0.00in /  0mm 222 W/m2
15:10 67.6 °F /  19.8 °C 57.5 °F /  14.2 °C 29.86in /  1011.1hPa NW 6mph /  9.7km/h 17mph /  27.4km/h 70% 0.00in /  0mm 310 W/m2
15:20 67.3 °F /  19.6 °C 58.3 °F /  14.6 °C 29.86in /  1011.1hPa NNE 6mph /  9.7km/h 12mph /  19.3km/h 73% 0.00in /  0mm 270 W/m2
15:30 66.7 °F /  19.3 °C 58.5 °F /  14.7 °C 29.87in /  1011.4hPa NNE 5mph /  8km/h 10mph /  16.1km/h 75% 0.00in /  0mm 377 W/m2
15:40 66.7 °F /  19.3 °C 59.7 °F /  15.4 °C 29.87in /  1011.4hPa NNE 5mph /  8km/h 12mph /  19.3km/h 78% 0.00in /  0mm 595 W/m2
15:50 67.5 °F /  19.7 °C 60 °F /  15.6 °C 29.86in /  1011.1hPa NNE 3mph /  4.8km/h 7mph /  11.3km/h 77% 0.00in /  0mm 382 W/m2
16:00 67.9 °F /  19.9 °C 59.7 °F /  15.4 °C 29.86in /  1011.1hPa NNE 3mph /  4.8km/h 7mph /  11.3km/h 75% 0.00in /  0mm 512 W/m2
16:10 68.3 °F /  20.2 °C 59.3 °F /  15.2 °C 29.86in /  1011.1hPa NE 2mph /  3.2km/h 11mph /  17.7km/h 73% 0.00in /  0mm 590 W/m2
16:20 68.5 °F /  20.3 °C 59.2 °F /  15.1 °C 29.85in /  1010.7hPa NE 5mph /  8km/h 12mph /  19.3km/h 72% 0.00in /  0mm 561 W/m2
16:30 69.7 °F /  20.9 °C 60.3 °F /  15.7 °C 29.85in /  1010.7hPa North 1mph /  1.6km/h 6mph /  9.7km/h 72% 0.00in /  0mm 532 W/m2
16:40 70.5 °F /  21.4 °C 59.4 °F /  15.2 °C 29.85in /  1010.7hPa NNE 3mph /  4.8km/h 8mph /  12.9km/h 68% 0.00in /  0mm 229 W/m2
16:50 70.7 °F /  21.5 °C 59.2 °F /  15.1 °C 29.85in /  1010.7hPa NE 6mph /  9.7km/h 8mph /  12.9km/h 67% 0.00in /  0mm 471 W/m2
17:00 71.1 °F /  21.7 °C 59.5 °F /  15.3 °C 29.85in /  1010.7hPa NNE 2mph /  3.2km/h 8mph /  12.9km/h 67% 0.00in /  0mm 441 W/m2
17:10 71.4 °F /  21.9 °C 59.9 °F /  15.5 °C 29.85in /  1010.7hPa North 2mph /  3.2km/h 7mph /  11.3km/h 67% 0.00in /  0mm 388 W/m2
17:20 71.1 °F /  21.7 °C 59.5 °F /  15.3 °C 29.85in /  1010.7hPa North 3mph /  4.8km/h 7mph /  11.3km/h 67% 0.00in /  0mm 217 W/m2
17:30 70.9 °F /  21.6 °C 59.4 °F /  15.2 °C 29.85in /  1010.7hPa North 3mph /  4.8km/h 8mph /  12.9km/h 67% 0.00in /  0mm 110 W/m2
17:40 69.8 °F /  21 °C 59.2 °F /  15.1 °C 29.85in /  1010.7hPa North 3mph /  4.8km/h 9mph /  14.5km/h 69% 0.00in /  0mm 81 W/m2
17:50 68.8 °F /  20.4 °C 58.6 °F /  14.8 °C 29.85in /  1010.7hPa NNE 5mph /  8km/h 11mph /  17.7km/h 70% 0.00in /  0mm 188 W/m2
18:00 68.4 °F /  20.2 °C 59 °F /  15 °C 29.85in /  1010.7hPa North 5mph /  8km/h 10mph /  16.1km/h 72% 0.00in /  0mm 234 W/m2
18:10 68.2 °F /  20.1 °C 59.2 °F /  15.1 °C 29.85in /  1010.7hPa North 6mph /  9.7km/h 8mph /  12.9km/h 73% 0.00in /  0mm 181 W/m2
18:20 68 °F /  20 °C 58.6 °F /  14.8 °C 29.85in /  1010.7hPa North 3mph /  4.8km/h 8mph /  12.9km/h 72% 0.00in /  0mm 167 W/m2
18:30 67.8 °F /  19.9 °C 59.2 °F /  15.1 °C 29.85in /  1010.7hPa North 2mph /  3.2km/h 7mph /  11.3km/h 74% 0.00in /  0mm 119 W/m2
18:40 67.5 °F /  19.7 °C 58.5 °F /  14.7 °C 29.85in /  1010.7hPa North 2mph /  3.2km/h 7mph /  11.3km/h 73% 0.00in /  0mm 119 W/m2
18:50 67.5 °F /  19.7 °C 58.5 °F /  14.7 °C 29.85in /  1010.7hPa North 2mph /  3.2km/h 7mph /  11.3km/h 73% 0.00in /  0mm 102 W/m2
19:00 67.3 °F /  19.6 °C 58.3 °F /  14.6 °C 29.85in /  1010.7hPa North 1mph /  1.6km/h 5mph /  8km/h 73% 0.00in /  0mm 86 W/m2
19:10 66.9 °F /  19.4 °C 58 °F /  14.4 °C 29.86in /  1011.1hPa Calm   5mph /  8km/h 73% 0.00in /  0mm 44 W/m2
19:20 66.4 °F /  19.1 °C 58.3 °F /  14.6 °C 29.86in /  1011.1hPa North 1mph /  1.6km/h 1mph /  1.6km/h 75% 0.00in /  0mm 27 W/m2
19:30 65.8 °F /  18.8 °C 57.7 °F /  14.3 °C 29.86in /  1011.1hPa Calm   1mph /  1.6km/h 75% 0.00in /  0mm 16 W/m2
19:40 65 °F /  18.3 °C 56.9 °F /  13.8 °C 29.86in /  1011.1hPa North 1mph /  1.6km/h 2mph /  3.2km/h 75% 0.00in /  0mm 10 W/m2
19:50 64.2 °F /  17.9 °C 57.2 °F /  14 °C 29.86in /  1011.1hPa SSE 1mph /  1.6km/h 3mph /  4.8km/h 78% 0.00in /  0mm 4 W/m2
20:00 63.5 °F /  17.5 °C 56.9 °F /  13.8 °C 29.86in /  1011.1hPa SSW 1mph /  1.6km/h 4mph /  6.4km/h 79% 0.00in /  0mm 0 W/m2
20:10 63 °F /  17.2 °C 56.7 °F /  13.7 °C 29.86in /  1011.1hPa SSW 1mph /  1.6km/h 2mph /  3.2km/h 80% 0.00in /  0mm 0 W/m2
20:20 62.3 °F /  16.8 °C 56.4 °F /  13.6 °C 29.87in /  1011.4hPa South 1mph /  1.6km/h 3mph /  4.8km/h 81% 0.00in /  0mm 0 W/m2
20:30 61.5 °F /  16.4 °C 56.3 °F /  13.5 °C 29.87in /  1011.4hPa WSW 2mph /  3.2km/h 3mph /  4.8km/h 83% 0.00in /  0mm 0 W/m2
20:40 60.8 °F /  16 °C 56.3 °F /  13.5 °C 29.87in /  1011.4hPa WNW 2mph /  3.2km/h 5mph /  8km/h 85% 0.00in /  0mm 0 W/m2
20:50 60.3 °F /  15.7 °C 56.1 °F /  13.4 °C 29.87in /  1011.4hPa West 1mph /  1.6km/h 5mph /  8km/h 86% 0.00in /  0mm 0 W/m2
21:00 59.9 °F /  15.5 °C 55.7 °F /  13.2 °C 29.88in /  1011.7hPa WSW 1mph /  1.6km/h 3mph /  4.8km/h 86% 0.00in /  0mm 0 W/m2
21:10 59.5 °F /  15.3 °C 56 °F /  13.3 °C 29.88in /  1011.7hPa SW 1mph /  1.6km/h 2mph /  3.2km/h 88% 0.00in /  0mm 0 W/m2
21:20 59 °F /  15 °C 55.4 °F /  13 °C 29.88in /  1011.7hPa WSW 2mph /  3.2km/h 3mph /  4.8km/h 88% 0.00in /  0mm 0 W/m2
21:30 58.6 °F /  14.8 °C 55.4 °F /  13 °C 29.88in /  1011.7hPa WNW 2mph /  3.2km/h 2mph /  3.2km/h 89% 0.00in /  0mm 0 W/m2
21:40 58.5 °F /  14.7 °C 55.2 °F /  12.9 °C 29.88in /  1011.7hPa Calm   2mph /  3.2km/h 89% 0.00in /  0mm 0 W/m2
21:50 58.3 °F /  14.6 °C 55.4 °F /  13 °C 29.88in /  1011.7hPa WSW 1mph /  1.6km/h 2mph /  3.2km/h 90% 0.00in /  0mm 0 W/m2
22:00 57.9 °F /  14.4 °C 55 °F /  12.8 °C 29.89in /  1012.1hPa NW 1mph /  1.6km/h 2mph /  3.2km/h 90% 0.00in /  0mm 0 W/m2
22:10 57.9 °F /  14.4 °C 55 °F /  12.8 °C 29.88in /  1011.7hPa NNE 2mph /  3.2km/h 3mph /  4.8km/h 90% 0.00in /  0mm 0 W/m2
22:20 57.9 °F /  14.4 °C 55 °F /  12.8 °C 29.88in /  1011.7hPa Calm   2mph /  3.2km/h 90% 0.00in /  0mm 0 W/m2
22:30 57.9 °F /  14.4 °C 55 °F /  12.8 °C 29.88in /  1011.7hPa SSE 1mph /  1.6km/h 2mph /  3.2km/h 90% 0.00in /  0mm 0 W/m2
22:40 57.7 °F /  14.3 °C 54.8 °F /  12.7 °C 29.88in /  1011.7hPa East 2mph /  3.2km/h 5mph /  8km/h 90% 0.00in /  0mm 0 W/m2
22:50 57.7 °F /  14.3 °C 54.8 °F /  12.7 °C 29.88in /  1011.7hPa ESE 3mph /  4.8km/h 8mph /  12.9km/h 90% 0.00in /  0mm 0 W/m2
23:00 57.9 °F /  14.4 °C 55 °F /  12.8 °C 29.88in /  1011.7hPa ESE 3mph /  4.8km/h 9mph /  14.5km/h 90% 0.00in /  0mm 0 W/m2
23:10 57.7 °F /  14.3 °C 54.8 °F /  12.7 °C 29.88in /  1011.7hPa SE 1mph /  1.6km/h 5mph /  8km/h 90% 0.00in /  0mm 0 W/m2
23:20 57.6 °F /  14.2 °C 54.6 °F /  12.6 °C 29.88in /  1011.7hPa Calm   2mph /  3.2km/h 90% 0.00in /  0mm 0 W/m2
23:30 57.5 °F /  14.2 °C 54.9 °F /  12.7 °C 29.88in /  1011.7hPa NW 1mph /  1.6km/h 2mph /  3.2km/h 91% 0.00in /  0mm 0 W/m2
23:40 57.4 °F /  14.1 °C 54.8 °F /  12.7 °C 29.88in /  1011.7hPa West 1mph /  1.6km/h 2mph /  3.2km/h 91% 0.00in /  0mm 0 W/m2
23:50 57.2 °F /  14 °C 54.6 °F /  12.6 °C 29.88in /  1011.7hPa Calm   2mph /  3.2km/h 91% 0.00in /  0mm 0 W/m2
Knjazevac, Serbia
Compliments of Weather Underground - 2 mb